Sanford, Michigan
Current Conditions -  °F | °C
As of 7:15 PM on Saturday 22 Nov 2014 (Local Time) from KIKW Reporting Station
Haze Haze  
Wind Chill: 36°   Ceiling: 300
Heat Index: 41°   Visibility: 3mi
Dew Point: 40°   Wind: 8mph
Humidity: 98%   Direction: 200°SSW
Pressure: 29.85"   Gusts: NA
Location:  43.67°N, 84.38°W
Report Text: KIKW 230015Z AUTO 20007KT 3SM BR OVC003 05/05 A2985 RMK AO2 T00490046
Loading
Personal Weather Stations






























Interactive Weather Map New forecast layout! Learn more

10-Day Weather Forecast

Advertisements
Track Severe Weather on mobile